sensor_id;sensor_type;location;lat;lon;timestamp;P1;durP1;ratioP1;P2;durP2;ratioP2
23720;SDS011;42950;52.134;5.578;2023-06-22T00:00:52;5.22;;;4.75;;
23720;SDS011;42950;52.134;5.578;2023-06-22T00:03:18;5.22;;;4.60;;
23720;SDS011;42950;52.134;5.578;2023-06-22T00:05:48;5.47;;;4.65;;
23720;SDS011;42950;52.134;5.578;2023-06-22T00:08:14;5.65;;;4.82;;
23720;SDS011;42950;52.134;5.578;2023-06-22T00:10:41;6.60;;;4.70;;
23720;SDS011;42950;52.134;5.578;2023-06-22T00:13:07;6.32;;;5.50;;
23720;SDS011;42950;52.134;5.578;2023-06-22T00:15:34;6.63;;;5.80;;
23720;SDS011;42950;52.134;5.578;2023-06-22T00:18:06;5.97;;;5.47;;
23720;SDS011;42950;52.134;5.578;2023-06-22T00:20:33;7.22;;;5.85;;
23720;SDS011;42950;52.134;5.578;2023-06-22T00:23:03;8.15;;;5.50;;
23720;SDS011;42950;52.134;5.578;2023-06-22T00:25:37;8.95;;;6.03;;
23720;SDS011;42950;52.134;5.578;2023-06-22T00:28:03;7.10;;;6.20;;
23720;SDS011;42950;52.134;5.578;2023-06-22T00:30:30;8.15;;;6.22;;
23720;SDS011;42950;52.134;5.578;2023-06-22T00:32:57;9.52;;;7.18;;
23720;SDS011;42950;52.134;5.578;2023-06-22T00:35:23;7.78;;;6.90;;
23720;SDS011;42950;52.134;5.578;2023-06-22T00:37:56;10.13;;;7.10;;
23720;SDS011;42950;52.134;5.578;2023-06-22T00:40:26;8.38;;;6.57;;
23720;SDS011;42950;52.134;5.578;2023-06-22T00:42:52;9.48;;;7.35;;
23720;SDS011;42950;52.134;5.578;2023-06-22T00:45:18;8.13;;;6.28;;
23720;SDS011;42950;52.134;5.578;2023-06-22T00:47:46;8.63;;;7.30;;
23720;SDS011;42950;52.134;5.578;2023-06-22T00:50:12;9.77;;;7.70;;
23720;SDS011;42950;52.134;5.578;2023-06-22T00:52:47;8.93;;;7.18;;
23720;SDS011;42950;52.134;5.578;2023-06-22T00:55:16;8.68;;;6.97;;
23720;SDS011;42950;52.134;5.578;2023-06-22T00:57:44;8.05;;;6.97;;
23720;SDS011;42950;52.134;5.578;2023-06-22T01:00:11;7.45;;;6.70;;
23720;SDS011;42950;52.134;5.578;2023-06-22T01:02:44;8.68;;;6.78;;
23720;SDS011;42950;52.134;5.578;2023-06-22T01:05:12;7.32;;;6.60;;
23720;SDS011;42950;52.134;5.578;2023-06-22T01:12:51;7.38;;;6.45;;
23720;SDS011;42950;52.134;5.578;2023-06-22T01:15:26;7.13;;;6.38;;
23720;SDS011;42950;52.134;5.578;2023-06-22T01:17:56;8.43;;;7.13;;
23720;SDS011;42950;52.134;5.578;2023-06-22T01:20:23;7.32;;;6.63;;
23720;SDS011;42950;52.134;5.578;2023-06-22T01:25:57;7.32;;;6.55;;
23720;SDS011;42950;52.134;5.578;2023-06-22T01:28:43;6.93;;;5.85;;
23720;SDS011;42950;52.134;5.578;2023-06-22T01:31:12;6.15;;;5.55;;
23720;SDS011;42950;52.134;5.578;2023-06-22T01:33:42;6.25;;;5.65;;
23720;SDS011;42950;52.134;5.578;2023-06-22T01:36:11;7.80;;;6.60;;
23720;SDS011;42950;52.134;5.578;2023-06-22T01:38:38;6.60;;;6.00;;
23720;SDS011;42950;52.134;5.578;2023-06-22T01:41:04;7.30;;;6.60;;
23720;SDS011;42950;52.134;5.578;2023-06-22T01:43:31;7.15;;;6.13;;
23720;SDS011;42950;52.134;5.578;2023-06-22T01:45:59;6.68;;;5.47;;
23720;SDS011;42950;52.134;5.578;2023-06-22T01:48:26;6.68;;;6.07;;
23720;SDS011;42950;52.134;5.578;2023-06-22T01:50:52;7.63;;;6.80;;
23720;SDS011;42950;52.134;5.578;2023-06-22T01:53:21;7.13;;;6.10;;
23720;SDS011;42950;52.134;5.578;2023-06-22T01:55:48;7.35;;;6.35;;
23720;SDS011;42950;52.134;5.578;2023-06-22T01:58:14;6.20;;;5.60;;
23720;SDS011;42950;52.134;5.578;2023-06-22T02:00:41;6.15;;;5.55;;
23720;SDS011;42950;52.134;5.578;2023-06-22T02:03:13;8.15;;;6.47;;
23720;SDS011;42950;52.134;5.578;2023-06-22T02:05:52;7.82;;;6.60;;
23720;SDS011;42950;52.134;5.578;2023-06-22T02:08:28;12.25;;;7.28;;
23720;SDS011;42950;52.134;5.578;2023-06-22T02:11:17;10.27;;;7.70;;
23720;SDS011;42950;52.134;5.578;2023-06-22T02:13:45;8.23;;;7.22;;
23720;SDS011;42950;52.134;5.578;2023-06-22T02:16:11;10.90;;;7.97;;
23720;SDS011;42950;52.134;5.578;2023-06-22T02:18:38;10.70;;;7.60;;
23720;SDS011;42950;52.134;5.578;2023-06-22T02:21:05;8.45;;;7.63;;
23720;SDS011;42950;52.134;5.578;2023-06-22T02:23:32;9.65;;;8.40;;
23720;SDS011;42950;52.134;5.578;2023-06-22T02:26:01;11.05;;;8.40;;
23720;SDS011;42950;52.134;5.578;2023-06-22T02:28:27;9.70;;;7.80;;
23720;SDS011;42950;52.134;5.578;2023-06-22T02:30:53;11.07;;;7.63;;
23720;SDS011;42950;52.134;5.578;2023-06-22T02:33:19;10.70;;;8.05;;
23720;SDS011;42950;52.134;5.578;2023-06-22T02:35:45;8.30;;;7.50;;
23720;SDS011;42950;52.134;5.578;2023-06-22T02:38:14;10.85;;;7.00;;
23720;SDS011;42950;52.134;5.578;2023-06-22T02:40:40;8.73;;;7.78;;
23720;SDS011;42950;52.134;5.578;2023-06-22T02:43:06;8.70;;;7.75;;
23720;SDS011;42950;52.134;5.578;2023-06-22T02:45:32;12.13;;;8.02;;
23720;SDS011;42950;52.134;5.578;2023-06-22T02:47:58;8.82;;;7.32;;
23720;SDS011;42950;52.134;5.578;2023-06-22T02:50:23;10.00;;;8.05;;
23720;SDS011;42950;52.134;5.578;2023-06-22T02:52:49;8.30;;;7.03;;
23720;SDS011;42950;52.134;5.578;2023-06-22T02:55:15;8.45;;;7.35;;
23720;SDS011;42950;52.134;5.578;2023-06-22T02:57:40;12.30;;;8.02;;
23720;SDS011;42950;52.134;5.578;2023-06-22T03:00:09;11.25;;;8.48;;
23720;SDS011;42950;52.134;5.578;2023-06-22T03:02:42;8.82;;;7.93;;
23720;SDS011;42950;52.134;5.578;2023-06-22T03:05:09;11.98;;;8.38;;
23720;SDS011;42950;52.134;5.578;2023-06-22T03:07:38;9.90;;;8.35;;
23720;SDS011;42950;52.134;5.578;2023-06-22T03:10:08;10.02;;;7.43;;
23720;SDS011;42950;52.134;5.578;2023-06-22T03:12:35;10.65;;;8.13;;
23720;SDS011;42950;52.134;5.578;2023-06-22T03:15:01;8.65;;;7.65;;
23720;SDS011;42950;52.134;5.578;2023-06-22T03:17:26;10.73;;;8.77;;
23720;SDS011;42950;52.134;5.578;2023-06-22T03:19:53;11.20;;;9.77;;
23720;SDS011;42950;52.134;5.578;2023-06-22T03:22:20;13.63;;;8.68;;
23720;SDS011;42950;52.134;5.578;2023-06-22T03:24:46;13.73;;;9.98;;
23720;SDS011;42950;52.134;5.578;2023-06-22T03:27:11;15.95;;;11.07;;
23720;SDS011;42950;52.134;5.578;2023-06-22T03:29:37;12.68;;;10.80;;
23720;SDS011;42950;52.134;5.578;2023-06-22T03:32:03;15.38;;;11.18;;
23720;SDS011;42950;52.134;5.578;2023-06-22T03:34:30;17.92;;;11.80;;
23720;SDS011;42950;52.134;5.578;2023-06-22T03:36:59;18.15;;;12.57;;
23720;SDS011;42950;52.134;5.578;2023-06-22T03:39:25;17.67;;;13.40;;
23720;SDS011;42950;52.134;5.578;2023-06-22T03:41:50;16.40;;;13.48;;
23720;SDS011;42950;52.134;5.578;2023-06-22T03:44:16;16.15;;;13.30;;
23720;SDS011;42950;52.134;5.578;2023-06-22T03:46:42;19.88;;;13.93;;
23720;SDS011;42950;52.134;5.578;2023-06-22T03:49:07;15.13;;;13.50;;
23720;SDS011;42950;52.134;5.578;2023-06-22T03:51:33;19.30;;;13.77;;
23720;SDS011;42950;52.134;5.578;2023-06-22T03:53:59;18.92;;;15.68;;
23720;SDS011;42950;52.134;5.578;2023-06-22T03:56:25;19.55;;;16.08;;
23720;SDS011;42950;52.134;5.578;2023-06-22T03:58:50;20.33;;;15.93;;
23720;SDS011;42950;52.134;5.578;2023-06-22T04:01:16;22.60;;;15.80;;
23720;SDS011;42950;52.134;5.578;2023-06-22T04:03:42;21.75;;;16.20;;
23720;SDS011;42950;52.134;5.578;2023-06-22T04:06:09;22.40;;;16.13;;
23720;SDS011;42950;52.134;5.578;2023-06-22T04:08:34;23.70;;;17.55;;
23720;SDS011;42950;52.134;5.578;2023-06-22T04:11:00;20.58;;;16.70;;
23720;SDS011;42950;52.134;5.578;2023-06-22T04:13:26;20.30;;;16.90;;
23720;SDS011;42950;52.134;5.578;2023-06-22T04:15:51;20.58;;;17.17;;
23720;SDS011;42950;52.134;5.578;2023-06-22T04:18:17;22.13;;;17.55;;
23720;SDS011;42950;52.134;5.578;2023-06-22T04:20:43;23.88;;;19.02;;
23720;SDS011;42950;52.134;5.578;2023-06-22T04:23:12;20.33;;;17.33;;
23720;SDS011;42950;52.134;5.578;2023-06-22T04:25:43;19.63;;;16.00;;
23720;SDS011;42950;52.134;5.578;2023-06-22T04:28:09;26.23;;;19.00;;
23720;SDS011;42950;52.134;5.578;2023-06-22T04:30:37;20.25;;;17.83;;
23720;SDS011;42950;52.134;5.578;2023-06-22T04:33:11;18.38;;;16.40;;
23720;SDS011;42950;52.134;5.578;2023-06-22T04:35:39;25.77;;;19.17;;
23720;SDS011;42950;52.134;5.578;2023-06-22T04:38:07;23.23;;;17.10;;
23720;SDS011;42950;52.134;5.578;2023-06-22T04:40:33;25.27;;;20.88;;
23720;SDS011;42950;52.134;5.578;2023-06-22T04:42:59;27.80;;;21.98;;
23720;SDS011;42950;52.134;5.578;2023-06-22T04:45:28;30.30;;;23.23;;
23720;SDS011;42950;52.134;5.578;2023-06-22T04:47:56;30.85;;;25.13;;
23720;SDS011;42950;52.134;5.578;2023-06-22T04:50:22;33.78;;;27.00;;
23720;SDS011;42950;52.134;5.578;2023-06-22T04:52:48;32.70;;;25.02;;
23720;SDS011;42950;52.134;5.578;2023-06-22T04:55:15;34.33;;;26.05;;
23720;SDS011;42950;52.134;5.578;2023-06-22T04:57:50;34.35;;;24.17;;
23720;SDS011;42950;52.134;5.578;2023-06-22T05:00:16;35.22;;;27.02;;
23720;SDS011;42950;52.134;5.578;2023-06-22T05:02:48;31.85;;;26.08;;
23720;SDS011;42950;52.134;5.578;2023-06-22T05:05:14;29.70;;;24.58;;
23720;SDS011;42950;52.134;5.578;2023-06-22T05:07:44;37.10;;;27.70;;
23720;SDS011;42950;52.134;5.578;2023-06-22T05:10:12;32.92;;;27.55;;
23720;SDS011;42950;52.134;5.578;2023-06-22T05:12:39;35.70;;;29.00;;
23720;SDS011;42950;52.134;5.578;2023-06-22T05:15:09;35.65;;;30.65;;
23720;SDS011;42950;52.134;5.578;2023-06-22T05:17:35;42.80;;;30.05;;
23720;SDS011;42950;52.134;5.578;2023-06-22T05:20:08;35.13;;;29.38;;
23720;SDS011;42950;52.134;5.578;2023-06-22T05:22:37;34.92;;;29.50;;
23720;SDS011;42950;52.134;5.578;2023-06-22T05:25:09;38.88;;;29.90;;
23720;SDS011;42950;52.134;5.578;2023-06-22T05:27:36;42.22;;;33.17;;
23720;SDS011;42950;52.134;5.578;2023-06-22T05:30:05;45.40;;;32.47;;
23720;SDS011;42950;52.134;5.578;2023-06-22T05:32:34;38.85;;;32.63;;
23720;SDS011;42950;52.134;5.578;2023-06-22T05:35:00;40.03;;;31.35;;
23720;SDS011;42950;52.134;5.578;2023-06-22T05:37:26;33.42;;;27.77;;
23720;SDS011;42950;52.134;5.578;2023-06-22T05:39:52;32.65;;;28.35;;
23720;SDS011;42950;52.134;5.578;2023-06-22T05:42:20;32.65;;;27.23;;
23720;SDS011;42950;52.134;5.578;2023-06-22T05:44:46;42.03;;;32.40;;
23720;SDS011;42950;52.134;5.578;2023-06-22T05:47:12;37.70;;;30.20;;
23720;SDS011;42950;52.134;5.578;2023-06-22T05:49:37;32.85;;;29.00;;
23720;SDS011;42950;52.134;5.578;2023-06-22T05:52:03;34.92;;;26.48;;
23720;SDS011;42950;52.134;5.578;2023-06-22T05:54:29;34.80;;;28.25;;
23720;SDS011;42950;52.134;5.578;2023-06-22T05:56:55;30.98;;;25.73;;
23720;SDS011;42950;52.134;5.578;2023-06-22T05:59:20;31.30;;;26.02;;
23720;SDS011;42950;52.134;5.578;2023-06-22T06:01:46;32.67;;;27.88;;
23720;SDS011;42950;52.134;5.578;2023-06-22T06:04:16;33.08;;;26.63;;
23720;SDS011;42950;52.134;5.578;2023-06-22T06:06:44;28.92;;;24.90;;
23720;SDS011;42950;52.134;5.578;2023-06-22T06:09:12;30.50;;;25.02;;
23720;SDS011;42950;52.134;5.578;2023-06-22T06:11:39;30.48;;;24.30;;
23720;SDS011;42950;52.134;5.578;2023-06-22T06:14:04;29.48;;;24.35;;
23720;SDS011;42950;52.134;5.578;2023-06-22T06:16:30;25.80;;;21.75;;
23720;SDS011;42950;52.134;5.578;2023-06-22T06:18:56;27.80;;;24.35;;
23720;SDS011;42950;52.134;5.578;2023-06-22T06:21:23;26.80;;;23.00;;
23720;SDS011;42950;52.134;5.578;2023-06-22T06:23:49;28.42;;;22.90;;
23720;SDS011;42950;52.134;5.578;2023-06-22T06:26:14;25.77;;;23.00;;
23720;SDS011;42950;52.134;5.578;2023-06-22T06:28:42;26.75;;;22.55;;
23720;SDS011;42950;52.134;5.578;2023-06-22T06:31:08;25.20;;;21.42;;
23720;SDS011;42950;52.134;5.578;2023-06-22T06:33:34;26.80;;;23.13;;
23720;SDS011;42950;52.134;5.578;2023-06-22T06:36:00;26.85;;;22.85;;
23720;SDS011;42950;52.134;5.578;2023-06-22T06:38:28;24.33;;;21.27;;
23720;SDS011;42950;52.134;5.578;2023-06-22T06:40:57;30.15;;;23.65;;
23720;SDS011;42950;52.134;5.578;2023-06-22T06:43:23;25.30;;;22.60;;
23720;SDS011;42950;52.134;5.578;2023-06-22T06:45:49;27.30;;;23.95;;
23720;SDS011;42950;52.134;5.578;2023-06-22T06:48:15;27.80;;;21.70;;
23720;SDS011;42950;52.134;5.578;2023-06-22T06:50:41;27.42;;;22.83;;
23720;SDS011;42950;52.134;5.578;2023-06-22T06:53:08;26.30;;;22.52;;
23720;SDS011;42950;52.134;5.578;2023-06-22T06:55:34;26.00;;;21.83;;
23720;SDS011;42950;52.134;5.578;2023-06-22T06:58:00;27.23;;;20.10;;
23720;SDS011;42950;52.134;5.578;2023-06-22T07:00:27;24.65;;;20.92;;
23720;SDS011;42950;52.134;5.578;2023-06-22T07:02:53;27.50;;;19.63;;
23720;SDS011;42950;52.134;5.578;2023-06-22T07:05:19;25.58;;;18.63;;
23720;SDS011;42950;52.134;5.578;2023-06-22T07:07:44;21.33;;;19.05;;
23720;SDS011;42950;52.134;5.578;2023-06-22T07:10:10;26.02;;;19.77;;
23720;SDS011;42950;52.134;5.578;2023-06-22T07:12:36;24.55;;;17.98;;
23720;SDS011;42950;52.134;5.578;2023-06-22T07:15:02;20.13;;;17.13;;
23720;SDS011;42950;52.134;5.578;2023-06-22T07:17:35;19.13;;;15.18;;
23720;SDS011;42950;52.134;5.578;2023-06-22T07:20:02;19.40;;;15.20;;
23720;SDS011;42950;52.134;5.578;2023-06-22T07:22:35;20.20;;;14.77;;
23720;SDS011;42950;52.134;5.578;2023-06-22T07:25:01;19.65;;;15.23;;
23720;SDS011;42950;52.134;5.578;2023-06-22T07:27:29;19.67;;;14.45;;
23720;SDS011;42950;52.134;5.578;2023-06-22T07:30:00;20.85;;;16.08;;
23720;SDS011;42950;52.134;5.578;2023-06-22T07:32:25;15.85;;;14.15;;
23720;SDS011;42950;52.134;5.578;2023-06-22T07:34:51;14.27;;;12.77;;
23720;SDS011;42950;52.134;5.578;2023-06-22T07:37:16;15.57;;;12.88;;
23720;SDS011;42950;52.134;5.578;2023-06-22T07:39:42;17.77;;;13.73;;
23720;SDS011;42950;52.134;5.578;2023-06-22T07:42:07;15.45;;;13.43;;
23720;SDS011;42950;52.134;5.578;2023-06-22T07:44:34;15.57;;;11.68;;
23720;SDS011;42950;52.134;5.578;2023-06-22T07:46:59;14.52;;;12.32;;
23720;SDS011;42950;52.134;5.578;2023-06-22T07:49:25;16.45;;;12.63;;
23720;SDS011;42950;52.134;5.578;2023-06-22T07:51:50;16.90;;;12.43;;
23720;SDS011;42950;52.134;5.578;2023-06-22T07:54:16;14.30;;;12.27;;
23720;SDS011;42950;52.134;5.578;2023-06-22T07:56:42;13.85;;;11.13;;
23720;SDS011;42950;52.134;5.578;2023-06-22T07:59:08;15.70;;;12.30;;
23720;SDS011;42950;52.134;5.578;2023-06-22T08:01:33;16.67;;;10.35;;
23720;SDS011;42950;52.134;5.578;2023-06-22T08:03:59;13.48;;;10.45;;
23720;SDS011;42950;52.134;5.578;2023-06-22T08:06:24;14.05;;;11.85;;
23720;SDS011;42950;52.134;5.578;2023-06-22T08:08:50;15.02;;;10.85;;
23720;SDS011;42950;52.134;5.578;2023-06-22T08:11:18;11.85;;;10.65;;
23720;SDS011;42950;52.134;5.578;2023-06-22T08:13:44;11.63;;;10.30;;
23720;SDS011;42950;52.134;5.578;2023-06-22T08:16:10;12.52;;;10.27;;
23720;SDS011;42950;52.134;5.578;2023-06-22T08:18:35;13.50;;;9.82;;
23720;SDS011;42950;52.134;5.578;2023-06-22T08:21:01;11.50;;;9.73;;
23720;SDS011;42950;52.134;5.578;2023-06-22T08:23:26;10.63;;;9.25;;
23720;SDS011;42950;52.134;5.578;2023-06-22T08:25:52;10.85;;;8.27;;
23720;SDS011;42950;52.134;5.578;2023-06-22T08:28:18;11.48;;;9.75;;
23720;SDS011;42950;52.134;5.578;2023-06-22T08:30:43;10.40;;;8.82;;
23720;SDS011;42950;52.134;5.578;2023-06-22T08:33:09;10.02;;;8.63;;
23720;SDS011;42950;52.134;5.578;2023-06-22T08:35:34;10.77;;;8.77;;
23720;SDS011;42950;52.134;5.578;2023-06-22T08:38:00;9.98;;;8.23;;
23720;SDS011;42950;52.134;5.578;2023-06-22T08:40:27;9.82;;;7.90;;
23720;SDS011;42950;52.134;5.578;2023-06-22T08:42:54;9.20;;;7.45;;
23720;SDS011;42950;52.134;5.578;2023-06-22T08:45:20;10.75;;;8.18;;
23720;SDS011;42950;52.134;5.578;2023-06-22T08:47:45;8.75;;;7.85;;
23720;SDS011;42950;52.134;5.578;2023-06-22T08:50:11;9.60;;;7.60;;
23720;SDS011;42950;52.134;5.578;2023-06-22T08:52:37;9.75;;;6.32;;
23720;SDS011;42950;52.134;5.578;2023-06-22T08:55:06;8.48;;;6.47;;
23720;SDS011;42950;52.134;5.578;2023-06-22T08:57:32;6.32;;;5.72;;
23720;SDS011;42950;52.134;5.578;2023-06-22T08:59:58;9.70;;;6.05;;
23720;SDS011;42950;52.134;5.578;2023-06-22T09:02:24;6.78;;;5.75;;
23720;SDS011;42950;52.134;5.578;2023-06-22T09:04:56;7.40;;;5.85;;
23720;SDS011;42950;52.134;5.578;2023-06-22T09:07:22;7.55;;;5.97;;
23720;SDS011;42950;52.134;5.578;2023-06-22T09:09:50;8.23;;;6.55;;
23720;SDS011;42950;52.134;5.578;2023-06-22T09:12:16;5.57;;;4.90;;
23720;SDS011;42950;52.134;5.578;2023-06-22T09:14:42;5.00;;;4.35;;
23720;SDS011;42950;52.134;5.578;2023-06-22T09:17:07;4.90;;;4.38;;
23720;SDS011;42950;52.134;5.578;2023-06-22T09:19:33;5.78;;;4.50;;
23720;SDS011;42950;52.134;5.578;2023-06-22T09:21:58;8.45;;;4.57;;
23720;SDS011;42950;52.134;5.578;2023-06-22T09:24:25;5.10;;;4.25;;
23720;SDS011;42950;52.134;5.578;2023-06-22T09:26:50;9.18;;;5.43;;
23720;SDS011;42950;52.134;5.578;2023-06-22T09:29:16;11.52;;;5.00;;
23720;SDS011;42950;52.134;5.578;2023-06-22T09:31:42;8.85;;;5.03;;
23720;SDS011;42950;52.134;5.578;2023-06-22T09:34:07;4.88;;;3.97;;
23720;SDS011;42950;52.134;5.578;2023-06-22T09:36:33;6.40;;;4.47;;
23720;SDS011;42950;52.134;5.578;2023-06-22T09:39:02;5.15;;;4.60;;
23720;SDS011;42950;52.134;5.578;2023-06-22T09:41:31;6.20;;;4.82;;
23720;SDS011;42950;52.134;5.578;2023-06-22T09:43:57;5.30;;;4.68;;
23720;SDS011;42950;52.134;5.578;2023-06-22T09:46:22;6.25;;;5.22;;
23720;SDS011;42950;52.134;5.578;2023-06-22T09:48:50;6.78;;;5.35;;
23720;SDS011;42950;52.134;5.578;2023-06-22T09:51:16;6.15;;;4.47;;
23720;SDS011;42950;52.134;5.578;2023-06-22T09:53:41;6.65;;;4.03;;
23720;SDS011;42950;52.134;5.578;2023-06-22T09:56:07;6.25;;;4.85;;
23720;SDS011;42950;52.134;5.578;2023-06-22T09:58:39;5.85;;;5.22;;
23720;SDS011;42950;52.134;5.578;2023-06-22T10:01:05;7.13;;;5.70;;
23720;SDS011;42950;52.134;5.578;2023-06-22T10:03:31;8.05;;;5.30;;
23720;SDS011;42950;52.134;5.578;2023-06-22T10:05:57;5.85;;;5.00;;
23720;SDS011;42950;52.134;5.578;2023-06-22T10:08:22;5.95;;;5.35;;
23720;SDS011;42950;52.134;5.578;2023-06-22T10:10:48;5.93;;;5.30;;
23720;SDS011;42950;52.134;5.578;2023-06-22T10:13:13;5.72;;;5.18;;
23720;SDS011;42950;52.134;5.578;2023-06-22T10:15:39;6.88;;;5.43;;
23720;SDS011;42950;52.134;5.578;2023-06-22T10:18:07;7.90;;;5.65;;
23720;SDS011;42950;52.134;5.578;2023-06-22T10:20:33;8.35;;;6.38;;
23720;SDS011;42950;52.134;5.578;2023-06-22T10:22:59;7.72;;;6.22;;
23720;SDS011;42950;52.134;5.578;2023-06-22T10:25:26;8.57;;;5.50;;
23720;SDS011;42950;52.134;5.578;2023-06-22T10:27:52;6.75;;;6.05;;
23720;SDS011;42950;52.134;5.578;2023-06-22T10:30:18;8.70;;;5.80;;
23720;SDS011;42950;52.134;5.578;2023-06-22T10:32:45;5.93;;;5.28;;
23720;SDS011;42950;52.134;5.578;2023-06-22T10:35:10;6.82;;;5.22;;
23720;SDS011;42950;52.134;5.578;2023-06-22T10:37:38;5.85;;;4.65;;
23720;SDS011;42950;52.134;5.578;2023-06-22T10:40:05;6.20;;;4.70;;
23720;SDS011;42950;52.134;5.578;2023-06-22T10:42:32;5.47;;;4.68;;
23720;SDS011;42950;52.134;5.578;2023-06-22T10:44:58;5.85;;;4.95;;
23720;SDS011;42950;52.134;5.578;2023-06-22T10:47:24;6.00;;;4.70;;
23720;SDS011;42950;52.134;5.578;2023-06-22T10:49:49;6.50;;;4.75;;
23720;SDS011;42950;52.134;5.578;2023-06-22T10:52:15;6.53;;;4.50;;
23720;SDS011;42950;52.134;5.578;2023-06-22T10:54:42;6.13;;;4.72;;
23720;SDS011;42950;52.134;5.578;2023-06-22T10:57:07;6.53;;;5.55;;
23720;SDS011;42950;52.134;5.578;2023-06-22T10:59:33;5.57;;;5.00;;
23720;SDS011;42950;52.134;5.578;2023-06-22T11:01:59;6.85;;;5.25;;
23720;SDS011;42950;52.134;5.578;2023-06-22T11:04:24;6.65;;;5.35;;
23720;SDS011;42950;52.134;5.578;2023-06-22T11:06:50;8.40;;;5.00;;
23720;SDS011;42950;52.134;5.578;2023-06-22T11:09:17;6.65;;;4.45;;
23720;SDS011;42950;52.134;5.578;2023-06-22T11:11:49;6.28;;;5.18;;
23720;SDS011;42950;52.134;5.578;2023-06-22T11:14:18;5.60;;;4.78;;
23720;SDS011;42950;52.134;5.578;2023-06-22T11:16:44;6.13;;;5.20;;
23720;SDS011;42950;52.134;5.578;2023-06-22T11:19:09;6.00;;;4.93;;
23720;SDS011;42950;52.134;5.578;2023-06-22T11:21:35;10.68;;;5.75;;
23720;SDS011;42950;52.134;5.578;2023-06-22T11:24:00;6.80;;;5.32;;
23720;SDS011;42950;52.134;5.578;2023-06-22T11:26:26;7.22;;;5.75;;
23720;SDS011;42950;52.134;5.578;2023-06-22T11:28:54;7.57;;;5.68;;
23720;SDS011;42950;52.134;5.578;2023-06-22T11:31:20;8.43;;;5.80;;
23720;SDS011;42950;52.134;5.578;2023-06-22T11:33:46;8.98;;;6.72;;
23720;SDS011;42950;52.134;5.578;2023-06-22T11:36:12;9.73;;;6.25;;
23720;SDS011;42950;52.134;5.578;2023-06-22T11:38:39;9.90;;;6.13;;
23720;SDS011;42950;52.134;5.578;2023-06-22T11:41:09;8.88;;;6.65;;
23720;SDS011;42950;52.134;5.578;2023-06-22T11:43:35;10.82;;;6.35;;
23720;SDS011;42950;52.134;5.578;2023-06-22T11:46:02;9.20;;;7.15;;
23720;SDS011;42950;52.134;5.578;2023-06-22T11:48:28;9.20;;;7.00;;
23720;SDS011;42950;52.134;5.578;2023-06-22T11:50:54;9.82;;;7.20;;
23720;SDS011;42950;52.134;5.578;2023-06-22T11:53:20;7.95;;;6.80;;
23720;SDS011;42950;52.134;5.578;2023-06-22T11:55:48;9.00;;;7.03;;
23720;SDS011;42950;52.134;5.578;2023-06-22T11:58:15;9.05;;;6.70;;
23720;SDS011;42950;52.134;5.578;2023-06-22T12:00:40;9.07;;;6.75;;
23720;SDS011;42950;52.134;5.578;2023-06-22T12:03:06;8.73;;;6.43;;
23720;SDS011;42950;52.134;5.578;2023-06-22T12:05:32;7.65;;;6.13;;
23720;SDS011;42950;52.134;5.578;2023-06-22T12:07:58;7.05;;;6.25;;
23720;SDS011;42950;52.134;5.578;2023-06-22T12:10:25;8.63;;;6.85;;
23720;SDS011;42950;52.134;5.578;2023-06-22T12:12:51;7.68;;;6.82;;
23720;SDS011;42950;52.134;5.578;2023-06-22T12:15:16;7.53;;;6.28;;
23720;SDS011;42950;52.134;5.578;2023-06-22T12:17:43;7.18;;;6.50;;
23720;SDS011;42950;52.134;5.578;2023-06-22T12:20:09;8.32;;;6.78;;
23720;SDS011;42950;52.134;5.578;2023-06-22T12:22:35;6.20;;;5.55;;
23720;SDS011;42950;52.134;5.578;2023-06-22T12:25:02;10.32;;;7.45;;
23720;SDS011;42950;52.134;5.578;2023-06-22T12:27:28;10.93;;;8.55;;
23720;SDS011;42950;52.134;5.578;2023-06-22T12:29:55;10.27;;;8.63;;
23720;SDS011;42950;52.134;5.578;2023-06-22T12:32:24;9.68;;;8.13;;
23720;SDS011;42950;52.134;5.578;2023-06-22T12:34:50;13.05;;;9.07;;
23720;SDS011;42950;52.134;5.578;2023-06-22T12:37:16;9.05;;;8.02;;
23720;SDS011;42950;52.134;5.578;2023-06-22T12:39:42;11.32;;;9.85;;
23720;SDS011;42950;52.134;5.578;2023-06-22T12:42:07;10.68;;;8.15;;
23720;SDS011;42950;52.134;5.578;2023-06-22T12:44:43;12.75;;;9.57;;
23720;SDS011;42950;52.134;5.578;2023-06-22T12:47:08;15.95;;;11.30;;
23720;SDS011;42950;52.134;5.578;2023-06-22T12:49:35;15.75;;;11.18;;
23720;SDS011;42950;52.134;5.578;2023-06-22T12:52:01;12.02;;;10.75;;
23720;SDS011;42950;52.134;5.578;2023-06-22T12:54:27;16.90;;;11.68;;
23720;SDS011;42950;52.134;5.578;2023-06-22T12:56:54;15.23;;;11.02;;
23720;SDS011;42950;52.134;5.578;2023-06-22T12:59:20;12.35;;;11.07;;
23720;SDS011;42950;52.134;5.578;2023-06-22T13:01:46;14.40;;;10.55;;
23720;SDS011;42950;52.134;5.578;2023-06-22T13:04:11;11.13;;;8.40;;
23720;SDS011;42950;52.134;5.578;2023-06-22T13:06:40;20.23;;;12.05;;
23720;SDS011;42950;52.134;5.578;2023-06-22T13:09:06;13.93;;;11.63;;
23720;SDS011;42950;52.134;5.578;2023-06-22T13:11:31;16.60;;;10.52;;
23720;SDS011;42950;52.134;5.578;2023-06-22T13:13:57;13.55;;;11.18;;
23720;SDS011;42950;52.134;5.578;2023-06-22T13:16:22;16.88;;;12.27;;
23720;SDS011;42950;52.134;5.578;2023-06-22T13:18:49;13.30;;;11.45;;
23720;SDS011;42950;52.134;5.578;2023-06-22T13:21:15;15.27;;;11.27;;
23720;SDS011;42950;52.134;5.578;2023-06-22T13:23:40;12.18;;;10.90;;
23720;SDS011;42950;52.134;5.578;2023-06-22T13:26:07;14.82;;;12.73;;
23720;SDS011;42950;52.134;5.578;2023-06-22T13:28:32;13.20;;;11.75;;
23720;SDS011;42950;52.134;5.578;2023-06-22T13:30:58;16.17;;;10.75;;
23720;SDS011;42950;52.134;5.578;2023-06-22T13:33:23;17.58;;;12.02;;
23720;SDS011;42950;52.134;5.578;2023-06-22T13:35:49;17.40;;;11.30;;
23720;SDS011;42950;52.134;5.578;2023-06-22T13:38:15;16.67;;;13.10;;
23720;SDS011;42950;52.134;5.578;2023-06-22T13:40:40;14.48;;;11.60;;
23720;SDS011;42950;52.134;5.578;2023-06-22T13:43:06;16.20;;;13.48;;
23720;SDS011;42950;52.134;5.578;2023-06-22T13:45:33;13.48;;;11.50;;
23720;SDS011;42950;52.134;5.578;2023-06-22T13:47:59;14.65;;;13.15;;
23720;SDS011;42950;52.134;5.578;2023-06-22T13:50:24;15.48;;;12.20;;
23720;SDS011;42950;52.134;5.578;2023-06-22T13:52:50;16.42;;;13.20;;
23720;SDS011;42950;52.134;5.578;2023-06-22T13:55:16;18.48;;;13.95;;
23720;SDS011;42950;52.134;5.578;2023-06-22T13:57:42;14.77;;;13.18;;
23720;SDS011;42950;52.134;5.578;2023-06-22T14:00:08;16.60;;;14.60;;
23720;SDS011;42950;52.134;5.578;2023-06-22T14:02:34;16.55;;;12.63;;
23720;SDS011;42950;52.134;5.578;2023-06-22T14:05:00;12.00;;;10.63;;
23720;SDS011;42950;52.134;5.578;2023-06-22T14:07:27;14.50;;;13.00;;
23720;SDS011;42950;52.134;5.578;2023-06-22T14:09:53;13.68;;;11.85;;
23720;SDS011;42950;52.134;5.578;2023-06-22T14:12:18;15.18;;;11.50;;
23720;SDS011;42950;52.134;5.578;2023-06-22T14:14:44;12.63;;;10.50;;
23720;SDS011;42950;52.134;5.578;2023-06-22T14:17:10;13.15;;;10.93;;
23720;SDS011;42950;52.134;5.578;2023-06-22T14:19:36;15.45;;;11.48;;
23720;SDS011;42950;52.134;5.578;2023-06-22T14:22:02;12.93;;;10.65;;
23720;SDS011;42950;52.134;5.578;2023-06-22T14:24:28;12.63;;;11.32;;
23720;SDS011;42950;52.134;5.578;2023-06-22T14:26:54;14.93;;;12.07;;
23720;SDS011;42950;52.134;5.578;2023-06-22T14:29:20;12.75;;;10.55;;
23720;SDS011;42950;52.134;5.578;2023-06-22T14:31:49;11.73;;;10.50;;
23720;SDS011;42950;52.134;5.578;2023-06-22T14:34:15;11.18;;;9.77;;
23720;SDS011;42950;52.134;5.578;2023-06-22T14:36:41;10.80;;;9.70;;
23720;SDS011;42950;52.134;5.578;2023-06-22T14:39:07;13.50;;;9.90;;